Time;durP1;ratioP1;P1;durP2;ratioP2;P2;SDS_P1;SDS_P2;PMS_P1;PMS_P2;Temp;Humidity;BMP_temperature;BMP_pressure;BME280_temperature;BME280_humidity;BME280_pressure;Samples;Min_cycle;Max_cycle;Signal;HPM_P1;HPM_P2
2022/01/04 00:00:15;;;;;;;145.77;95.85;;;;;;;15.08;46.47;92640.31;4942697;28;20082;-82
2022/01/04 00:02:40;;;;;;;137.93;90.72;;;;;;;15.08;46.65;92623.25;4953017;28;20031;-82
2022/01/04 00:05:06;;;;;;;141.77;92.40;;;;;;;15.11;46.83;92629.66;4939476;28;20501;-82
2022/01/04 00:07:32;;;;;;;143.95;91.93;;;;;;;15.13;46.60;92621.72;4940355;28;20478;-82
2022/01/04 00:09:58;;;;;;;143.98;91.82;;;;;;;15.10;46.48;92628.94;4940179;28;20050;-82
2022/01/04 00:15:07;;;;;;;141.55;92.45;;;;;;;15.06;46.68;92614.84;4944151;28;20496;-82
2022/01/04 00:17:33;;;;;;;132.93;88.05;;;;;;;15.12;46.68;92603.94;4939918;28;20118;-82
2022/01/04 00:19:58;;;;;;;135.45;91.10;;;;;;;15.08;46.70;92599.50;4939880;28;20070;-82
2022/01/04 00:22:23;;;;;;;128.00;89.78;;;;;;;15.09;46.43;92594.78;4954989;28;20049;-83
2022/01/04 00:24:49;;;;;;;143.23;92.00;;;;;;;15.09;46.70;92594.78;4939997;28;20042;-83
2022/01/04 00:27:14;;;;;;;131.35;86.57;;;;;;;15.12;46.78;92590.31;4955064;28;20031;-83
2022/01/04 00:29:40;;;;;;;140.70;92.13;;;;;;;15.12;46.51;92585.59;4955728;28;20038;-83
2022/01/04 00:32:05;;;;;;;138.32;91.30;;;;;;;15.12;46.52;92573.97;4935628;28;20051;-82
2022/01/04 00:34:31;;;;;;;144.25;90.57;;;;;;;15.08;46.48;92566.84;4951978;28;20039;-82
2022/01/04 00:36:56;;;;;;;136.95;88.22;;;;;;;15.09;46.63;92570.28;4920526;29;20047;-82
2022/01/04 00:39:21;;;;;;;129.18;87.35;;;;;;;15.09;46.79;92570.28;4935874;28;20086;-83
2022/01/04 00:41:47;;;;;;;132.98;89.85;;;;;;;15.09;46.76;92567.56;4936164;29;20410;-83
2022/01/04 00:44:12;;;;;;;132.10;85.93;;;;;;;15.09;46.63;92570.28;4919430;28;20039;-83
2022/01/04 00:46:38;;;;;;;132.35;86.95;;;;;;;15.09;46.56;92576.47;4952378;28;20099;-83
2022/01/04 00:49:09;;;;;;;139.88;91.43;;;;;;;15.03;46.67;92570.34;4919869;28;20035;-82
2022/01/04 00:51:35;;;;;;;125.40;87.68;;;;;;;15.02;46.74;92559.97;4937358;28;20098;-83
2022/01/04 00:54:01;;;;;;;122.97;84.50;;;;;;;15.05;46.52;92561.66;4934648;29;20047;-82
2022/01/04 00:56:26;;;;;;;133.77;87.18;;;;;;;14.99;46.65;92566.41;4933507;29;20107;-82
2022/01/04 00:58:51;;;;;;;135.15;90.00;;;;;;;15.02;46.61;92557.97;4902602;29;20047;-83
2022/01/04 01:01:17;;;;;;;135.55;87.60;;;;;;;15.02;46.75;92560.69;4910296;28;20044;-83
2022/01/04 01:03:42;;;;;;;130.05;85.60;;;;;;;15.05;46.76;92558.94;4934668;29;20039;-83
2022/01/04 01:06:09;;;;;;;143.38;90.45;;;;;;;15.04;46.53;92560.94;4918111;29;20473;-82
2022/01/04 01:08:35;;;;;;;126.47;85.35;;;;;;;15.04;46.66;92552.03;4934404;29;20141;-82
2022/01/04 01:11:00;;;;;;;131.90;86.63;;;;;;;15.03;46.71;92545.84;4934161;29;20447;-83
2022/01/04 01:13:25;;;;;;;130.55;87.00;;;;;;;15.01;46.78;92537.44;4933982;29;20046;-83
2022/01/04 01:15:51;;;;;;;127.70;85.00;;;;;;;15.01;46.78;92542.16;4949333;28;20035;-83
2022/01/04 01:18:17;;;;;;;133.30;87.05;;;;;;;15.02;46.70;92547.09;4949856;28;20046;-83
2022/01/04 01:20:43;;;;;;;136.68;90.20;;;;;;;15.00;46.79;92527.81;4918258;29;20043;-82
2022/01/04 01:23:09;;;;;;;130.43;85.47;;;;;;;15.03;47.08;92536.94;4917776;28;20544;-82
2022/01/04 01:25:34;;;;;;;127.55;83.50;;;;;;;15.02;46.80;92530.03;4932401;28;20043;-82
2022/01/04 01:28:00;;;;;;;121.75;84.25;;;;;;;15.06;46.58;92527.75;4916115;29;20035;-83
2022/01/04 01:30:26;;;;;;;127.90;84.18;;;;;;;15.03;46.53;92524.06;4932858;28;20042;-83
2022/01/04 01:32:53;;;;;;;123.40;82.50;;;;;;;15.02;46.86;92525.31;4947562;28;20047;-83
2022/01/04 01:35:19;;;;;;;125.38;83.60;;;;;;;15.02;46.86;92517.16;4931625;28;20070;-82
2022/01/04 01:37:44;;;;;;;124.32;83.35;;;;;;;15.01;46.84;92515.66;4932436;28;20127;-83
2022/01/04 01:40:10;;;;;;;129.45;83.35;;;;;;;15.00;46.79;92508.00;4938022;28;20043;-82
2022/01/04 01:42:36;;;;;;;129.48;85.30;;;;;;;15.03;46.53;92504.28;4935274;29;20047;-82
2022/01/04 01:45:01;;;;;;;120.65;81.57;;;;;;;15.00;46.87;92506.03;4935021;28;20046;-83
2022/01/04 01:47:27;;;;;;;129.02;85.93;;;;;;;15.02;46.73;92505.53;4919249;29;20051;-83
2022/01/04 01:49:52;;;;;;;124.55;84.28;;;;;;;15.01;46.73;92498.59;4919756;29;20046;-83
2022/01/04 01:52:17;;;;;;;119.00;78.82;;;;;;;14.98;46.77;92481.31;4934622;28;20040;-82
2022/01/04 01:54:43;;;;;;;121.72;81.55;;;;;;;14.98;46.46;92473.16;4935064;28;20071;-82
2022/01/04 01:57:08;;;;;;;125.10;82.50;;;;;;;15.00;46.61;92476.09;4918262;28;20098;-83
2022/01/04 01:59:34;;;;;;;127.00;80.68;;;;;;;15.00;46.81;92475.34;4931272;28;20032;-83
2022/01/04 02:01:59;;;;;;;124.95;84.45;;;;;;;14.98;46.66;92473.16;4948133;28;20039;-82
2022/01/04 02:04:24;;;;;;;122.30;81.50;;;;;;;14.99;46.79;92466.44;4934199;28;20047;-83
2022/01/04 02:06:50;;;;;;;121.97;81.82;;;;;;;15.01;46.82;92449.63;4919160;29;20036;-82
2022/01/04 02:09:15;;;;;;;122.13;83.10;;;;;;;15.00;46.26;92453.59;4932856;28;20070;-82
2022/01/04 02:11:41;;;;;;;125.35;81.70;;;;;;;15.00;46.68;92451.59;4933446;29;20035;-82
2022/01/04 02:14:06;;;;;;;117.50;80.60;;;;;;;14.99;46.68;92446.66;4916656;28;20054;-82
2022/01/04 02:16:32;;;;;;;119.40;78.82;;;;;;;14.97;46.85;92444.47;4918240;29;20490;-82
2022/01/04 02:19:05;;;;;;;123.05;80.03;;;;;;;14.99;46.78;92436.53;4915272;29;20530;-82
2022/01/04 02:21:31;;;;;;;118.00;81.75;;;;;;;14.97;46.84;92430.13;4915033;29;20039;-82
2022/01/04 02:23:57;;;;;;;116.70;79.32;;;;;;;15.03;46.63;92430.78;4906310;29;20495;-82
2022/01/04 02:26:22;;;;;;;117.40;78.95;;;;;;;15.03;46.94;92423.38;4914729;28;20130;-82
2022/01/04 02:28:47;;;;;;;120.10;79.38;;;;;;;14.98;46.82;92420.69;4899631;29;20044;-82
2022/01/04 02:31:13;;;;;;;118.68;78.40;;;;;;;14.99;46.63;92416.72;4900046;29;20127;-82
2022/01/04 02:33:38;;;;;;;117.65;77.65;;;;;;;15.00;46.85;92413.50;4918713;29;20058;-83
2022/01/04 02:36:04;;;;;;;126.50;78.93;;;;;;;14.97;46.68;92417.25;4912480;28;20039;-82
2022/01/04 02:38:29;;;;;;;113.55;79.00;;;;;;;14.96;46.96;92390.53;4937004;28;20105;-82
2022/01/04 02:40:55;;;;;;;113.72;76.20;;;;;;;14.97;46.70;92397.47;4937079;28;20053;-82
2022/01/04 02:43:20;;;;;;;111.97;74.55;;;;;;;14.98;46.83;92391.50;4936694;28;20130;-82
2022/01/04 02:45:46;;;;;;;114.95;75.85;;;;;;;14.99;46.54;92389.53;4921812;28;20039;-83
2022/01/04 02:48:11;;;;;;;115.95;78.10;;;;;;;14.95;46.72;92383.63;4933515;28;20079;-83
2022/01/04 02:50:36;;;;;;;113.00;76.70;;;;;;;14.95;46.96;92370.75;4917961;29;20074;-83
2022/01/04 02:53:02;;;;;;;119.18;75.63;;;;;;;14.97;46.95;92372.97;4918045;29;20553;-83
2022/01/04 02:55:27;;;;;;;118.45;76.72;;;;;;;15.00;46.58;92377.38;4933771;28;20051;-82
2022/01/04 02:57:52;;;;;;;110.95;75.85;;;;;;;14.98;46.83;92355.38;4918100;29;20031;-82
2022/01/04 03:00:18;;;;;;;110.43;74.72;;;;;;;14.94;46.87;92352.25;4944701;28;20035;-82
2022/01/04 03:02:43;;;;;;;118.03;79.00;;;;;;;14.95;46.83;92342.81;4936949;28;20042;-82
2022/01/04 03:05:09;;;;;;;106.95;76.47;;;;;;;14.98;46.83;92341.78;4936117;28;20481;-82
2022/01/04 03:07:35;;;;;;;108.55;74.20;;;;;;;14.96;47.01;92338.84;4984884;28;20046;-82
2022/01/04 03:10:01;;;;;;;105.18;69.32;;;;;;;14.94;46.96;92333.91;4969147;28;20089;-82
2022/01/04 03:12:26;;;;;;;106.45;73.25;;;;;;;14.97;46.82;92329.44;4951661;28;20038;-83
2022/01/04 03:14:52;;;;;;;110.13;73.95;;;;;;;14.99;46.89;92333.09;4936588;28;20038;-83
2022/01/04 03:17:17;;;;;;;106.95;72.75;;;;;;;14.97;46.77;92323.97;4952363;28;20506;-82
2022/01/04 03:19:42;;;;;;;115.63;76.45;;;;;;;14.97;46.62;92313.84;4936918;28;20046;-83
2022/01/04 03:22:08;;;;;;;119.10;76.97;;;;;;;14.97;46.71;92322.00;4935787;28;20433;-83
2022/01/04 03:24:33;;;;;;;105.95;73.57;;;;;;;14.98;46.60;92315.31;4920829;28;20038;-82
2022/01/04 03:26:59;;;;;;;110.75;73.63;;;;;;;15.00;46.74;92312.06;4936471;28;20094;-83
2022/01/04 03:29:25;;;;;;;119.60;76.93;;;;;;;14.98;46.91;92311.84;4952256;28;20031;-82
2022/01/04 03:31:51;;;;;;;108.60;73.10;;;;;;;14.97;46.92;92313.84;4952553;28;20054;-82
2022/01/04 03:34:16;;;;;;;109.85;73.20;;;;;;;14.95;46.99;92304.72;4952014;28;20417;-82
2022/01/04 03:36:41;;;;;;;112.75;72.30;;;;;;;14.95;46.81;92302.72;4936309;28;20039;-82
2022/01/04 03:39:10;;;;;;;109.10;69.75;;;;;;;14.95;46.76;92302.00;4954811;28;20042;-83
2022/01/04 03:41:37;;;;;;;102.93;69.22;;;;;;;14.96;46.71;92295.28;4940528;28;20066;-83
2022/01/04 03:44:04;;;;;;;106.07;68.55;;;;;;;14.96;46.75;92287.13;4924670;28;20035;-82
2022/01/04 03:46:29;;;;;;;106.13;72.72;;;;;;;14.98;46.82;92287.34;4940159;28;20064;-82
2022/01/04 03:48:55;;;;;;;100.00;70.40;;;;;;;14.98;46.82;92279.19;4940131;28;20038;-83
2022/01/04 03:51:20;;;;;;;100.82;70.88;;;;;;;14.97;46.83;92264.13;4955669;28;20035;-82
2022/01/04 03:53:45;;;;;;;97.90;67.63;;;;;;;14.95;46.65;92277.50;4956680;28;20089;-82
2022/01/04 03:56:11;;;;;;;107.78;69.35;;;;;;;14.97;46.88;92270.28;4955657;28;20248;-82
2022/01/04 03:58:36;;;;;;;100.95;68.88;;;;;;;15.01;46.71;92270.00;4940073;28;20038;-82
2022/01/04 04:01:02;;;;;;;105.20;71.35;;;;;;;14.97;46.73;92269.56;4955431;28;20030;-83
2022/01/04 04:03:28;;;;;;;102.47;70.60;;;;;;;14.96;46.76;92257.94;4955888;28;20562;-82
2022/01/04 04:05:54;;;;;;;101.47;69.78;;;;;;;14.96;46.69;92249.78;4940295;28;20038;-83
2022/01/04 04:08:19;;;;;;;101.47;70.47;;;;;;;14.97;46.69;92247.78;4955390;28;20034;-82
2022/01/04 04:10:44;;;;;;;98.82;69.95;;;;;;;14.99;46.55;92248.75;4924503;28;20050;-83
2022/01/04 04:13:10;;;;;;;106.50;70.90;;;;;;;14.95;46.65;92236.69;4923745;28;20031;-82
2022/01/04 04:15:35;;;;;;;104.95;67.05;;;;;;;14.96;46.65;92243.59;4973232;28;20042;-82
2022/01/04 04:18:01;;;;;;;102.72;69.82;;;;;;;14.97;46.74;92237.63;4939728;28;20042;-82
2022/01/04 04:20:26;;;;;;;102.47;66.90;;;;;;;14.95;46.92;92231.97;4955244;28;20142;-82
2022/01/04 04:22:51;;;;;;;96.22;67.32;;;;;;;14.95;47.04;92223.06;4939584;28;20104;-82
2022/01/04 04:25:17;;;;;;;100.57;66.65;;;;;;;14.94;46.83;92227.06;4939337;28;20039;-82
2022/01/04 04:27:42;;;;;;;106.50;67.53;;;;;;;14.94;46.99;92225.06;4939853;28;20043;-82
2022/01/04 04:30:09;;;;;;;102.82;68.50;;;;;;;14.93;47.04;92222.88;4923523;28;20038;-82
2022/01/04 04:32:34;;;;;;;89.82;63.58;;;;;;;14.94;46.91;92227.06;4939445;28;20497;-82
2022/01/04 04:34:59;;;;;;;103.38;68.22;;;;;;;14.94;46.92;92221.63;4939205;28;20042;-83
2022/01/04 04:37:25;;;;;;;95.88;66.18;;;;;;;14.92;46.51;92211.25;4923820;28;20039;-83
2022/01/04 04:39:50;;;;;;;102.85;68.38;;;;;;;14.96;47.22;92206.22;4936617;28;20047;-82
2022/01/04 04:42:16;;;;;;;99.07;66.35;;;;;;;14.98;46.60;92194.84;4904171;28;20121;-82
2022/01/04 04:44:41;;;;;;;98.22;67.53;;;;;;;14.94;46.92;92200.56;4920320;29;20059;-83
2022/01/04 04:47:07;;;;;;;96.72;64.05;;;;;;;14.94;46.98;92202.59;4922819;28;20465;-82
2022/01/04 04:49:32;;;;;;;97.25;64.88;;;;;;;14.93;46.79;92193.69;4923333;28;20401;-82
2022/01/04 04:51:59;;;;;;;95.32;65.57;;;;;;;14.94;46.94;92191.69;4923776;28;20575;-83
2022/01/04 04:54:25;;;;;;;90.63;61.35;;;;;;;14.95;46.96;92195.88;4923349;28;20035;-83
2022/01/04 04:56:51;;;;;;;99.53;64.97;;;;;;;14.95;46.88;92193.16;4939754;28;20482;-82
2022/01/04 04:59:16;;;;;;;95.93;65.32;;;;;;;14.91;46.75;92181.84;4953249;28;20074;-82
2022/01/04 05:01:41;;;;;;;91.40;64.28;;;;;;;14.94;46.82;92173.38;4939043;28;20101;-83
2022/01/04 05:04:07;;;;;;;91.80;64.97;;;;;;;14.92;47.03;92156.84;4922551;28;20039;-83
2022/01/04 05:06:32;;;;;;;96.57;65.10;;;;;;;14.96;46.75;92170.13;4955072;28;20035;-82
2022/01/04 05:08:58;;;;;;;92.45;64.30;;;;;;;14.93;46.92;92161.03;4939014;28;20038;-83
2022/01/04 05:11:23;;;;;;;95.15;63.00;;;;;;;14.93;46.78;92163.03;4954379;28;20035;-82
2022/01/04 05:13:49;;;;;;;91.68;59.03;;;;;;;14.91;46.80;92155.38;4939041;28;20106;-82
2022/01/04 05:16:14;;;;;;;100.22;65.78;;;;;;;14.97;46.67;92158.00;4938502;28;20046;-83
2022/01/04 05:18:40;;;;;;;94.25;64.13;;;;;;;14.95;47.09;92155.06;4938691;28;20039;-83
2022/01/04 05:21:05;;;;;;;92.90;63.15;;;;;;;14.95;47.02;92147.63;4938295;28;20035;-82
2022/01/04 05:23:31;;;;;;;91.28;62.60;;;;;;;14.94;46.70;92143.44;4938655;28;20395;-82
2022/01/04 05:25:56;;;;;;;98.88;66.30;;;;;;;14.94;46.93;92137.28;4938889;28;20043;-82
2022/01/04 05:28:22;;;;;;;95.53;64.88;;;;;;;14.92;46.88;92129.63;4954319;28;20049;-82
2022/01/04 05:30:47;;;;;;;88.88;61.22;;;;;;;14.93;46.85;92128.38;4922736;28;20058;-83
2022/01/04 05:33:13;;;;;;;90.22;63.80;;;;;;;14.97;46.81;92134.22;4937728;28;20093;-82
2022/01/04 05:35:38;;;;;;;100.25;65.07;;;;;;;14.98;46.94;92129.53;4938134;28;20065;-82
2022/01/04 05:38:03;;;;;;;88.90;61.25;;;;;;;14.97;46.80;92119.91;4954177;28;20039;-81
2022/01/04 05:40:29;;;;;;;94.97;62.03;;;;;;;14.96;46.75;92121.88;4937863;28;20035;-82
2022/01/04 05:42:54;;;;;;;87.45;58.03;;;;;;;14.98;46.69;92107.75;4938585;28;20045;-83
2022/01/04 05:45:20;;;;;;;87.07;60.50;;;;;;;14.98;46.86;92113.19;4937687;28;20031;-83
2022/01/04 05:47:45;;;;;;;92.40;61.92;;;;;;;14.96;46.68;92105.56;4954019;28;20081;-82
2022/01/04 05:50:10;;;;;;;91.50;61.97;;;;;;;14.96;46.77;92108.28;4953608;28;20049;-83
2022/01/04 05:52:36;;;;;;;86.53;57.13;;;;;;;14.94;46.80;92096.47;4954203;28;20109;-82
2022/01/04 05:55:01;;;;;;;89.57;59.80;;;;;;;14.97;46.92;92095.41;4938174;28;20043;-82
2022/01/04 05:57:27;;;;;;;85.38;58.90;;;;;;;14.95;46.78;92101.38;4879214;29;20047;-82
2022/01/04 05:59:52;;;;;;;98.75;62.75;;;;;;;14.95;47.08;92087.75;4895352;29;20044;-82
2022/01/04 06:02:18;;;;;;;88.88;60.83;;;;;;;14.92;47.04;92090.81;4878378;29;20044;-82
2022/01/04 06:04:43;;;;;;;89.22;60.13;;;;;;;14.94;46.93;92078.13;4879742;29;20393;-82
2022/01/04 06:07:09;;;;;;;84.18;56.42;;;;;;;14.93;46.84;92076.69;4877644;29;20698;-82
2022/01/04 06:09:44;;;;;;;90.53;62.15;;;;;;;14.95;46.81;92070.69;4897488;29;20042;-82
2022/01/04 06:15:09;;;;;;;94.45;60.13;;;;;;;14.93;46.66;92054.91;4823304;29;20038;-82
2022/01/04 06:17:41;;;;;;;92.07;62.10;;;;;;;14.91;46.92;92045.81;4821522;29;20122;-83
2022/01/04 06:20:09;;;;;;;83.22;56.00;;;;;;;14.90;47.00;92045.06;4805700;29;20056;-82
2022/01/04 06:22:34;;;;;;;89.53;60.72;;;;;;;14.93;47.17;92044.03;4836390;29;20489;-82
2022/01/04 06:25:00;;;;;;;86.55;59.42;;;;;;;14.95;47.00;92051.66;4804401;29;20042;-82
2022/01/04 06:27:25;;;;;;;88.28;58.58;;;;;;;14.91;46.94;92043.09;4821288;29;20501;-83
2022/01/04 06:29:50;;;;;;;85.80;60.30;;;;;;;14.92;47.19;92036.38;4842250;29;20521;-82
2022/01/04 06:32:16;;;;;;;87.88;58.65;;;;;;;14.92;46.79;92050.00;4841844;29;20068;-82
2022/01/04 06:34:42;;;;;;;84.38;57.33;;;;;;;14.94;46.62;92045.47;4842711;29;20049;-83
2022/01/04 06:37:07;;;;;;;89.78;59.58;;;;;;;14.92;46.92;92036.38;4841569;29;20454;-82
2022/01/04 06:39:33;;;;;;;82.88;58.42;;;;;;;14.93;46.93;92038.59;4842777;29;20456;-82
2022/01/04 06:41:59;;;;;;;88.82;58.22;;;;;;;14.96;46.63;92036.78;4857476;29;20049;-82
2022/01/04 06:44:24;;;;;;;84.47;58.38;;;;;;;14.95;46.91;92038.78;4857272;29;20264;-83
2022/01/04 06:46:50;;;;;;;86.47;56.40;;;;;;;14.94;46.89;92044.78;4857616;29;20076;-82
2022/01/04 06:49:16;;;;;;;83.18;57.63;;;;;;;14.93;46.75;92046.75;4857088;29;20397;-82
2022/01/04 06:51:42;;;;;;;83.70;56.22;;;;;;;14.97;46.66;92041.72;4910252;28;20039;-82
2022/01/04 06:54:08;;;;;;;75.78;52.55;;;;;;;14.94;47.06;92047.50;4949325;28;20035;-82
2022/01/04 06:56:34;;;;;;;88.93;58.53;;;;;;;14.93;46.79;92035.13;4949164;28;20039;-82
2022/01/04 06:58:59;;;;;;;87.50;57.35;;;;;;;14.91;46.92;92035.66;4952097;28;20046;-82
2022/01/04 07:01:25;;;;;;;84.50;56.83;;;;;;;14.94;46.75;92042.75;4951997;28;20038;-83
2022/01/04 07:03:50;;;;;;;86.38;57.40;;;;;;;14.96;46.97;92042.25;4953465;28;20397;-82
2022/01/04 07:06:16;;;;;;;83.78;56.25;;;;;;;14.91;47.20;92032.94;4936452;28;20039;-82
2022/01/04 07:08:41;;;;;;;80.38;57.08;;;;;;;14.92;47.05;92036.38;4937038;28;20037;-83
2022/01/04 07:11:07;;;;;;;84.53;56.65;;;;;;;14.89;47.06;92026.53;4936015;28;20046;-82
2022/01/04 07:13:32;;;;;;;79.93;54.38;;;;;;;14.88;46.86;92025.81;4935928;28;20494;-83
2022/01/04 07:15:57;;;;;;;84.88;57.00;;;;;;;14.93;47.20;92026.97;4936862;28;20035;-82
2022/01/04 07:18:23;;;;;;;72.68;53.78;;;;;;;14.94;46.90;92029.16;4936403;28;20034;-82
2022/01/04 07:20:48;;;;;;;80.72;55.17;;;;;;;14.95;46.69;92029.88;4936794;28;20046;-82
2022/01/04 07:23:14;;;;;;;82.50;54.75;;;;;;;14.95;46.59;92040.75;4936377;28;20039;-82
2022/01/04 07:25:39;;;;;;;87.53;56.13;;;;;;;14.94;46.75;92042.03;4921207;28;20046;-81
2022/01/04 07:28:04;;;;;;;82.63;56.17;;;;;;;14.96;46.89;92034.06;4936600;28;20035;-82
2022/01/04 07:30:30;;;;;;;79.05;54.17;;;;;;;14.94;46.95;92034.59;4936418;28;20165;-82
2022/01/04 07:32:56;;;;;;;82.70;55.33;;;;;;;14.96;46.85;92029.38;4933616;28;20043;-82
2022/01/04 07:35:21;;;;;;;80.57;54.92;;;;;;;14.93;46.90;92033.16;4932757;28;20046;-82
2022/01/04 07:37:46;;;;;;;77.45;54.97;;;;;;;14.95;46.89;92019.72;4933663;28;20050;-83
2022/01/04 07:40:13;;;;;;;83.38;55.75;;;;;;;14.94;46.69;92017.56;4948754;28;20040;-83
2022/01/04 07:42:38;;;;;;;81.70;54.15;;;;;;;14.93;47.01;92007.94;4933396;28;20045;-82
2022/01/04 07:45:04;;;;;;;80.55;55.15;;;;;;;14.95;46.76;91997.22;4932729;28;20047;-82
2022/01/04 07:47:30;;;;;;;84.65;55.05;;;;;;;14.92;47.07;91993.59;4933507;28;20406;-82
2022/01/04 07:49:55;;;;;;;75.40;52.65;;;;;;;14.94;46.77;91974.03;4918058;29;20490;-82
2022/01/04 07:52:21;;;;;;;77.88;55.15;;;;;;;14.94;46.89;91960.41;4948763;28;20054;-82
2022/01/04 07:54:46;;;;;;;79.80;53.65;;;;;;;14.96;46.56;91960.59;4932938;28;20050;-82
2022/01/04 07:57:12;;;;;;;75.28;53.17;;;;;;;14.93;46.93;91946.09;4916486;28;20051;-82
2022/01/04 07:59:37;;;;;;;79.18;55.42;;;;;;;14.92;46.59;91941.91;4913280;29;20443;-83
2022/01/04 08:02:02;;;;;;;76.15;53.28;;;;;;;14.94;46.79;91939.34;4929422;28;20039;-82
2022/01/04 08:04:28;;;;;;;76.55;52.88;;;;;;;14.92;46.83;91924.84;4933338;28;20036;-82
2022/01/04 08:06:53;;;;;;;74.88;52.85;;;;;;;14.94;46.92;91933.22;4917032;29;20043;-82
2022/01/04 08:09:19;;;;;;;78.00;52.28;;;;;;;14.93;46.92;91940.66;4916806;28;20051;-82
2022/01/04 08:11:44;;;;;;;78.05;53.97;;;;;;;14.93;46.77;91939.91;4914808;29;20044;-82
2022/01/04 08:14:09;;;;;;;74.85;53.15;;;;;;;14.96;46.85;91933.41;4928367;28;20065;-84
2022/01/04 08:16:35;;;;;;;77.75;52.67;;;;;;;14.93;46.90;91945.34;4948117;28;20576;-82
2022/01/04 08:19:00;;;;;;;76.28;52.65;;;;;;;14.96;46.87;91923.25;4931526;28;20040;-82
2022/01/04 08:21:26;;;;;;;74.03;51.40;;;;;;;14.95;46.77;91926.50;4929225;28;20043;-82
2022/01/04 08:23:52;;;;;;;74.38;52.88;;;;;;;14.98;46.75;91933.59;4949126;28;20066;-82
2022/01/04 08:26:18;;;;;;;74.13;50.40;;;;;;;14.94;46.91;91933.22;4915567;28;20407;-83
2022/01/04 08:28:44;;;;;;;73.57;50.90;;;;;;;14.96;46.79;91925.22;4933143;28;20044;-82
2022/01/04 08:31:11;;;;;;;79.57;54.25;;;;;;;14.95;46.88;91937.38;4925601;28;20135;-82
2022/01/04 08:33:36;;;;;;;77.20;50.78;;;;;;;14.93;46.78;91929.75;4940853;28;20095;-82
2022/01/04 08:36:02;;;;;;;77.85;52.65;;;;;;;14.92;46.72;91920.13;4954544;28;20300;-82
2022/01/04 08:38:27;;;;;;;75.05;52.30;;;;;;;14.92;46.83;91911.22;4940160;28;20047;-82
2022/01/04 08:40:53;;;;;;;75.53;54.17;;;;;;;14.95;46.78;91908.19;4954431;28;20511;-82
2022/01/04 08:43:19;;;;;;;71.60;48.30;;;;;;;14.93;47.05;91901.81;4949357;28;20122;-81
2022/01/04 08:45:44;;;;;;;71.07;45.70;;;;;;;14.97;47.04;91910.38;4956467;28;20035;-81
2022/01/04 08:48:10;;;;;;;89.22;61.40;;;;;;;14.94;47.06;91908.72;4925480;28;20050;-82
2022/01/04 08:50:35;;;;;;;71.75;49.28;;;;;;;14.95;46.83;91908.19;4922017;28;20039;-81
2022/01/04 08:53:01;;;;;;;74.13;50.00;;;;;;;14.92;46.83;91900.34;4937504;28;20042;-82
2022/01/04 08:55:26;;;;;;;68.35;49.03;;;;;;;14.95;46.91;91888.41;4935058;28;20043;-82
2022/01/04 08:57:52;;;;;;;74.60;51.15;;;;;;;14.92;46.90;91884.75;4915155;29;20052;-81
2022/01/04 09:00:17;;;;;;;75.35;51.00;;;;;;;14.93;46.97;91888.94;4920919;28;20031;-81
2022/01/04 09:02:43;;;;;;;71.07;51.17;;;;;;;14.90;47.01;91875.66;4954397;28;20086;-81
2022/01/04 09:05:10;;;;;;;75.05;52.60;;;;;;;14.90;46.91;91884.56;4945197;28;20035;-81
2022/01/04 09:07:35;;;;;;;77.68;53.38;;;;;;;14.87;47.13;91880.16;4947598;28;20119;-81
2022/01/04 09:10:01;;;;;;;77.07;53.90;;;;;;;14.92;46.98;91887.47;4972247;28;20038;-81
2022/01/04 09:12:36;;;;;;;74.75;51.53;;;;;;;14.93;47.01;91888.22;4953782;28;20617;-81
2022/01/04 09:15:17;;;;;;;73.63;48.38;;;;;;;14.89;47.07;91891.25;4941689;28;20031;-80
2022/01/04 09:20:26;;;;;;;66.18;42.70;;;;;;;14.96;46.85;91890.59;4971567;28;19929;-81
2022/01/04 09:22:52;;;;;;;78.30;48.85;;;;;;;14.92;47.15;91882.03;4938324;28;20042;-81
2022/01/04 09:25:18;;;;;;;80.80;52.35;;;;;;;14.91;46.77;91877.84;4938446;28;20042;-81
2022/01/04 09:27:43;;;;;;;74.38;52.05;;;;;;;14.90;47.02;91881.84;4952876;28;20079;-81
2022/01/04 09:30:09;;;;;;;80.05;50.55;;;;;;;14.94;46.85;91871.34;4933180;28;20064;-81
2022/01/04 09:32:35;;;;;;;87.72;54.60;;;;;;;14.93;46.98;91869.16;4936922;28;20130;-81
2022/01/04 09:35:01;;;;;;;92.05;56.55;;;;;;;14.87;47.13;91866.56;4935852;28;20487;-81
2022/01/04 09:37:26;;;;;;;80.80;52.70;;;;;;;14.91;47.01;91858.81;4952775;28;20035;-81
2022/01/04 09:39:51;;;;;;;97.90;58.72;;;;;;;14.96;47.01;91857.22;4937810;28;20039;-80
2022/01/04 09:42:19;;;;;;;75.13;43.65;;;;;;;14.87;47.22;91842.06;4953004;28;20123;-81
2022/01/04 09:44:44;;;;;;;92.00;56.97;;;;;;;14.92;47.07;91838.50;4921865;28;20089;-81
2022/01/04 09:47:11;;;;;;;85.40;46.78;;;;;;;14.84;47.47;91831.50;4937128;28;20453;-81
2022/01/04 09:49:36;;;;;;;52.67;29.23;;;;;;;14.73;47.91;91821.56;4937635;28;20041;-80
2022/01/04 09:52:03;;;;;;;63.53;32.92;;;;;;;14.77;47.84;91821.25;4970742;28;20046;-81
2022/01/04 09:54:28;;;;;;;50.65;32.03;;;;;;;14.73;47.78;91805.97;4936948;28;20046;-80
2022/01/04 09:56:54;;;;;;;57.08;31.73;;;;;;;14.80;47.84;91809.31;4937495;28;20038;-80
2022/01/04 09:59:19;;;;;;;53.42;32.65;;;;;;;14.77;47.99;91802.94;4920543;28;20059;-81
2022/01/04 10:01:50;;;;;;;55.20;32.17;;;;;;;14.78;47.74;91782.66;4953038;28;20051;-81
2022/01/04 10:04:15;;;;;;;70.25;38.58;;;;;;;14.76;47.66;91785.16;4936658;28;20569;-82
2022/01/04 10:06:41;;;;;;;59.25;37.35;;;;;;;14.76;47.91;91793.31;4962055;28;20074;-82
2022/01/04 10:09:12;;;;;;;66.75;42.75;;;;;;;14.78;48.39;91790.06;4951397;28;20039;-83
2022/01/04 10:11:39;;;;;;;81.50;45.35;;;;;;;14.77;48.06;91775.00;4936929;28;20043;-83
2022/01/04 10:14:23;;;;;;;78.85;44.83;;;;;;;14.77;47.65;91775.00;4964890;28;20577;-82
2022/01/04 10:16:53;;;;;;;69.07;44.67;;;;;;;14.80;47.44;91771.25;4933772;28;20387;-81
2022/01/04 10:19:35;;;;;;;75.72;45.88;;;;;;;14.81;47.73;91780.88;4937081;28;20046;-82
2022/01/04 10:22:20;;;;;;;72.15;46.08;;;;;;;14.81;47.66;91764.53;4953364;28;20042;-82
2022/01/04 10:24:49;;;;;;;71.82;45.28;;;;;;;14.84;47.54;91761.50;4949027;28;20414;-82
2022/01/04 10:27:24;;;;;;;64.28;42.45;;;;;;;14.84;47.45;91764.22;4934507;28;20036;-82
2022/01/04 10:30:26;;;;;;;72.10;43.25;;;;;;;14.86;47.50;91750.09;4930089;28;20054;-82
2022/01/04 10:33:08;;;;;;;62.42;40.20;;;;;;;14.87;47.26;91735.25;4954903;28;20494;-82
2022/01/04 10:35:36;;;;;;;71.65;42.47;;;;;;;14.86;47.56;91742.66;4951910;28;20667;-82
2022/01/04 10:38:29;;;;;;;65.57;38.92;;;;;;;14.83;47.56;91741.00;4969253;28;20043;-83
2022/01/04 10:41:08;;;;;;;60.38;41.83;;;;;;;14.87;47.49;91730.53;4933028;29;20057;-81
2022/01/04 10:43:37;;;;;;;68.13;41.95;;;;;;;14.85;47.59;91719.44;4968703;28;20038;-82
2022/01/04 10:46:02;;;;;;;69.15;42.33;;;;;;;14.90;47.28;91721.31;4968795;28;20039;-81
2022/01/04 10:48:31;;;;;;;62.70;40.70;;;;;;;14.87;47.52;91716.94;4937090;28;20042;-82
2022/01/04 10:51:07;;;;;;;62.88;41.33;;;;;;;14.86;47.58;91695.69;4962395;28;20030;-83
2022/01/04 10:53:37;;;;;;;68.47;42.50;;;;;;;14.86;47.58;91701.84;4951691;28;20066;-82
2022/01/04 10:56:05;;;;;;;62.80;41.35;;;;;;;14.81;47.62;91699.25;4950623;28;20041;-81
2022/01/04 10:58:33;;;;;;;61.70;39.80;;;;;;;14.85;47.52;91689.53;4952725;28;20035;-82
2022/01/04 11:01:04;;;;;;;63.80;40.58;;;;;;;14.87;47.60;91700.59;4936410;28;20118;-82
2022/01/04 11:03:32;;;;;;;56.42;38.67;;;;;;;14.89;47.61;91692.66;4920818;28;20055;-81
2022/01/04 11:06:06;;;;;;;65.97;41.20;;;;;;;14.87;48.08;91689.00;4935865;28;20039;-81
2022/01/04 11:08:32;;;;;;;64.80;41.75;;;;;;;14.90;47.72;91682.50;4936456;28;20466;-82
2022/01/04 11:10:58;;;;;;;64.50;40.13;;;;;;;14.88;47.31;91672.13;4934203;28;20039;-82
2022/01/04 11:13:23;;;;;;;64.13;43.10;;;;;;;14.85;47.39;91670.47;4951126;28;20035;-83
2022/01/04 11:15:49;;;;;;;60.10;41.08;;;;;;;14.89;47.56;91670.16;4951826;28;20046;-83
2022/01/04 11:18:15;;;;;;;64.20;39.85;;;;;;;14.92;47.33;91667.09;4935535;28;20046;-83